createdAt,value
2022-08-28T00:02:25.223Z,47.84
2022-08-28T00:04:51.854Z,47.23
2022-08-28T00:07:19.336Z,47.16
2022-08-28T00:09:45.906Z,47.42
2022-08-28T00:12:12.520Z,47.30
2022-08-28T00:14:39.455Z,47.24
2022-08-28T00:17:06.230Z,47.20
2022-08-28T00:19:38.505Z,47.41
2022-08-28T00:22:06.225Z,47.82
2022-08-28T00:24:33.140Z,47.79
2022-08-28T00:27:28.910Z,47.91
2022-08-28T00:29:55.505Z,48.04
2022-08-28T00:32:25.255Z,47.98
2022-08-28T00:34:52.092Z,48.26
2022-08-28T00:37:18.712Z,48.24
2022-08-28T00:39:45.244Z,48.12
2022-08-28T00:42:11.947Z,47.80
2022-08-28T00:44:38.434Z,47.90
2022-08-28T00:47:05.071Z,47.89
2022-08-28T00:49:36.090Z,47.88
2022-08-28T00:52:11.806Z,48.25
2022-08-28T00:54:44.179Z,48.69
2022-08-28T00:57:32.006Z,48.79
2022-08-28T00:59:58.830Z,48.96
2022-08-28T01:02:26.594Z,49.10
2022-08-28T01:04:53.805Z,49.22
2022-08-28T01:07:23.235Z,49.45
2022-08-28T01:09:54.058Z,49.31
2022-08-28T01:12:28.902Z,49.34
2022-08-28T01:15:00.023Z,48.62
2022-08-28T01:17:31.284Z,48.88
2022-08-28T01:20:03.770Z,48.47
2022-08-28T01:22:43.179Z,48.54
2022-08-28T01:25:13.963Z,48.81
2022-08-28T01:27:44.387Z,48.99
2022-08-28T01:30:14.055Z,49.31
2022-08-28T01:32:47.440Z,49.61
2022-08-28T01:35:21.182Z,49.73
2022-08-28T01:37:48.238Z,49.91
2022-08-28T01:40:23.764Z,49.58
2022-08-28T01:42:50.302Z,49.49
2022-08-28T01:45:20.446Z,49.02
2022-08-28T01:47:47.561Z,49.26
2022-08-28T01:50:20.383Z,49.52
2022-08-28T01:52:47.102Z,49.52
2022-08-28T01:55:14.072Z,49.42
2022-08-28T01:57:45.948Z,49.68
2022-08-28T02:00:14.375Z,49.81
2022-08-28T02:02:40.897Z,49.70
2022-08-28T02:05:08.701Z,49.73
2022-08-28T02:07:35.424Z,49.73
2022-08-28T02:10:02.784Z,49.71
2022-08-28T02:12:29.983Z,49.97
2022-08-28T02:14:56.432Z,50.25
2022-08-28T02:17:22.840Z,50.28
2022-08-28T02:19:49.302Z,50.73
2022-08-28T02:22:15.743Z,50.92
2022-08-28T02:24:42.278Z,51.15
2022-08-28T02:27:09.104Z,50.72
2022-08-28T02:29:35.524Z,50.81
2022-08-28T02:32:02.115Z,51.26
2022-08-28T02:34:28.567Z,50.75
2022-08-28T02:36:56.152Z,50.86
2022-08-28T02:39:22.650Z,51.16
2022-08-28T02:41:49.196Z,51.30
2022-08-28T02:44:16.725Z,51.28
2022-08-28T02:46:43.692Z,51.14
2022-08-28T02:49:10.147Z,50.91
2022-08-28T02:51:36.598Z,51.06
2022-08-28T02:54:03.421Z,51.14
2022-08-28T02:56:30.944Z,51.34
2022-08-28T02:58:58.284Z,51.77
2022-08-28T03:01:24.808Z,51.54
2022-08-28T03:03:51.368Z,51.92
2022-08-28T03:06:17.799Z,51.78
2022-08-28T03:08:45.138Z,51.77
2022-08-28T03:11:12.176Z,51.93
2022-08-28T03:13:38.873Z,51.87
2022-08-28T03:16:05.499Z,51.88
2022-08-28T03:18:33.184Z,51.93
2022-08-28T03:21:00.407Z,52.03
2022-08-28T03:23:27.215Z,52.49
2022-08-28T03:26:09.718Z,52.69
2022-08-28T03:28:43.179Z,53.21
2022-08-28T03:31:13.763Z,52.85
2022-08-28T03:33:42.547Z,53.13
2022-08-28T03:36:11.552Z,53.40
2022-08-28T03:38:38.184Z,53.21
2022-08-28T03:41:10.596Z,53.46
2022-08-28T03:43:37.095Z,53.63
2022-08-28T03:46:05.890Z,53.34
2022-08-28T03:48:36.284Z,53.58
2022-08-28T03:51:08.016Z,53.85
2022-08-28T03:53:34.496Z,54.00
2022-08-28T03:56:13.664Z,54.04
2022-08-28T03:58:41.343Z,54.36
2022-08-28T04:01:08.535Z,54.62
2022-08-28T04:03:35.455Z,54.91
2022-08-28T04:06:02.548Z,55.29
2022-08-28T04:08:29.488Z,54.72
2022-08-28T04:10:56.794Z,55.01
2022-08-28T04:13:23.285Z,55.19
2022-08-28T04:16:05.015Z,55.17
2022-08-28T04:18:33.508Z,55.88
2022-08-28T04:21:07.846Z,55.79
2022-08-28T04:23:35.072Z,56.00
2022-08-28T04:26:03.863Z,56.10
2022-08-28T04:28:32.321Z,56.51
2022-08-28T04:30:59.563Z,55.92
2022-08-28T04:33:27.300Z,56.33
2022-08-28T04:35:54.357Z,56.64
2022-08-28T04:38:21.403Z,56.94
2022-08-28T04:40:48.272Z,56.93
2022-08-28T04:43:14.777Z,56.43
2022-08-28T04:45:43.329Z,56.52
2022-08-28T04:48:13.238Z,56.75
2022-08-28T04:50:44.076Z,57.12
2022-08-28T04:53:10.919Z,56.75
2022-08-28T04:55:54.976Z,56.84
2022-08-28T04:58:23.649Z,56.66
2022-08-28T05:00:52.336Z,56.48
2022-08-28T05:03:18.829Z,56.46
2022-08-28T05:05:48.294Z,56.37
2022-08-28T05:08:16.413Z,57.14
2022-08-28T05:10:43.340Z,57.25
2022-08-28T05:13:11.335Z,56.92
2022-08-28T05:15:43.491Z,57.14
2022-08-28T05:18:13.555Z,56.97
2022-08-28T05:20:45.784Z,57.39
2022-08-28T05:23:13.310Z,57.19
2022-08-28T05:25:42.770Z,57.04
2022-08-28T05:28:12.169Z,57.40
2022-08-28T05:30:41.467Z,57.15
2022-08-28T05:33:09.881Z,56.99
2022-08-28T05:35:42.835Z,57.10
2022-08-28T05:38:11.284Z,57.21
2022-08-28T05:40:43.502Z,57.64
2022-08-28T05:43:11.447Z,57.95
2022-08-28T05:45:38.172Z,57.69
2022-08-28T05:48:05.356Z,57.56
2022-08-28T05:50:32.061Z,58.11
2022-08-28T05:52:58.506Z,58.13
2022-08-28T05:55:24.946Z,58.27
2022-08-28T05:57:51.530Z,58.14
2022-08-28T06:00:18.346Z,57.85
2022-08-28T06:02:44.888Z,57.30
2022-08-28T06:05:12.896Z,57.29
2022-08-28T06:07:40.943Z,57.67
2022-08-28T06:10:07.806Z,57.90
2022-08-28T06:12:37.531Z,57.79
2022-08-28T06:15:04.632Z,57.39
2022-08-28T06:17:31.114Z,57.52
2022-08-28T06:19:57.520Z,56.82
2022-08-28T06:22:24.073Z,56.33
2022-08-28T06:24:50.547Z,56.51
2022-08-28T06:27:17.060Z,56.97
2022-08-28T06:29:44.636Z,56.84
2022-08-28T06:32:11.151Z,56.61
2022-08-28T06:34:37.619Z,56.41
2022-08-28T06:37:04.137Z,55.52
2022-08-28T06:39:30.655Z,55.60
2022-08-28T06:41:57.133Z,55.57
2022-08-28T06:44:23.897Z,54.90
2022-08-28T06:46:53.617Z,55.27
2022-08-28T06:49:20.541Z,55.39
2022-08-28T06:51:47.090Z,54.79
2022-08-28T06:54:19.671Z,54.15
2022-08-28T06:56:49.084Z,54.13
2022-08-28T06:59:15.553Z,54.06
2022-08-28T07:01:42.043Z,54.45
2022-08-28T07:04:11.125Z,53.94
2022-08-28T07:06:40.855Z,53.89
2022-08-28T07:09:11.039Z,53.52
2022-08-28T07:11:38.675Z,53.42
2022-08-28T07:14:06.317Z,53.08
2022-08-28T07:16:38.008Z,53.25
2022-08-28T07:19:10.039Z,53.32
2022-08-28T07:21:39.450Z,53.33
2022-08-28T07:24:07.341Z,53.41
2022-08-28T07:26:35.698Z,53.73
2022-08-28T07:29:10.377Z,53.64
2022-08-28T07:31:40.805Z,53.48
2022-08-28T07:34:07.845Z,53.28
2022-08-28T07:36:34.915Z,53.42
2022-08-28T07:39:01.400Z,54.57
2022-08-28T07:41:30.871Z,54.38
2022-08-28T07:44:15.785Z,54.42
2022-08-28T07:46:43.355Z,54.16
2022-08-28T07:49:11.065Z,53.85
2022-08-28T07:51:37.540Z,53.84
2022-08-28T07:54:05.091Z,53.83
2022-08-28T07:56:32.107Z,53.00
2022-08-28T07:59:00.420Z,52.63
2022-08-28T08:01:28.936Z,52.69
2022-08-28T08:04:01.304Z,51.95
2022-08-28T08:06:34.242Z,51.81
2022-08-28T08:09:04.995Z,50.84
2022-08-28T08:11:32.451Z,50.95
2022-08-28T08:14:04.698Z,50.59
2022-08-28T08:16:34.729Z,50.46
2022-08-28T08:19:02.047Z,49.95
2022-08-28T08:21:30.493Z,49.92
2022-08-28T08:23:58.008Z,49.54
2022-08-28T08:26:27.929Z,48.91
2022-08-28T08:28:54.865Z,49.64
2022-08-28T08:31:27.270Z,49.23
2022-08-28T08:33:57.917Z,48.79
2022-08-28T08:36:26.463Z,48.63
2022-08-28T08:38:59.593Z,48.54
2022-08-28T08:41:51.791Z,48.63
2022-08-28T08:44:34.045Z,46.93
2022-08-28T08:47:20.034Z,47.72
2022-08-28T08:49:52.317Z,47.21
2022-08-28T08:52:24.776Z,47.05
2022-08-28T08:55:35.417Z,46.64
2022-08-28T08:58:25.938Z,46.87
2022-08-28T09:01:00.545Z,45.85
2022-08-28T09:03:44.440Z,45.30
2022-08-28T09:06:29.669Z,45.37
2022-08-28T09:09:04.643Z,44.76
2022-08-28T09:11:45.217Z,45.58
2022-08-28T09:14:33.610Z,43.94
2022-08-28T09:17:05.030Z,44.71
2022-08-28T09:19:31.533Z,43.83
2022-08-28T09:21:58.680Z,43.51
2022-08-28T09:24:52.449Z,43.33
2022-08-28T09:27:26.459Z,43.18
2022-08-28T09:30:08.050Z,43.21
2022-08-28T09:32:44.350Z,43.27
2022-08-28T09:35:29.875Z,41.93
2022-08-28T09:38:16.435Z,42.17
2022-08-28T09:41:01.851Z,42.33
2022-08-28T09:43:31.405Z,41.43
2022-08-28T09:46:05.587Z,41.82
2022-08-28T09:48:40.722Z,41.18
2022-08-28T09:51:27.981Z,41.17
2022-08-28T09:53:57.362Z,40.87
2022-08-28T09:57:29.491Z,40.23
2022-08-28T09:59:57.113Z,40.45
2022-08-28T10:02:39.921Z,39.93
2022-08-28T10:05:16.277Z,38.83
2022-08-28T10:07:55.667Z,40.35
2022-08-28T10:10:40.000Z,38.94
2022-08-28T10:13:52.821Z,39.28
2022-08-28T10:16:26.199Z,39.08
2022-08-28T10:19:13.667Z,39.91
2022-08-28T10:21:54.849Z,39.51
2022-08-28T10:24:40.094Z,39.20
2022-08-28T10:27:23.429Z,38.54
2022-08-28T10:30:08.926Z,37.51
2022-08-28T10:32:40.775Z,36.89
2022-08-28T10:35:29.208Z,37.48
2022-08-28T10:38:23.755Z,37.70
2022-08-28T10:41:15.116Z,36.55
2022-08-28T10:47:29.437Z,37.39
2022-08-28T10:50:02.648Z,37.21
2022-08-28T10:52:57.551Z,37.12
2022-08-28T10:55:34.577Z,37.84
2022-08-28T10:58:25.144Z,37.22
2022-08-28T11:00:58.884Z,36.58
2022-08-28T11:03:35.734Z,36.46
2022-08-28T11:06:32.085Z,35.46
2022-08-28T11:09:25.531Z,35.91
2022-08-28T11:12:01.840Z,35.64
2022-08-28T11:14:35.591Z,35.39
2022-08-28T11:17:30.321Z,35.42
2022-08-28T11:20:15.275Z,35.63
2022-08-28T11:22:43.766Z,35.31
2022-08-28T11:25:26.587Z,36.12
2022-08-28T11:28:24.694Z,35.38
2022-08-28T11:31:06.402Z,35.56
2022-08-28T11:33:40.696Z,35.58
2022-08-28T11:36:19.356Z,35.91
2022-08-28T11:38:45.727Z,35.83
2022-08-28T11:41:27.353Z,35.34
2022-08-28T11:44:09.188Z,35.98
2022-08-28T11:47:00.227Z,35.44
2022-08-28T11:49:26.746Z,33.54
2022-08-28T11:52:08.101Z,34.69
2022-08-28T11:54:45.235Z,34.13
2022-08-28T11:57:19.467Z,33.74
2022-08-28T12:00:02.546Z,34.20
2022-08-28T12:02:39.738Z,32.95
2022-08-28T12:05:08.511Z,32.84
2022-08-28T12:07:38.922Z,32.65
2022-08-28T12:10:20.733Z,32.12
2022-08-28T12:12:47.245Z,32.65
2022-08-28T12:15:43.485Z,33.80
2022-08-28T12:18:12.887Z,33.29
2022-08-28T12:20:51.944Z,33.32
2022-08-28T12:23:45.118Z,33.33
2022-08-28T12:26:26.028Z,33.38
2022-08-28T12:29:00.234Z,33.24
2022-08-28T12:32:12.828Z,31.87
2022-08-28T12:34:42.411Z,31.84
2022-08-28T12:37:51.572Z,31.88
2022-08-28T12:40:19.681Z,31.86
2022-08-28T12:42:54.894Z,32.57
2022-08-28T12:45:45.191Z,32.45
2022-08-28T12:48:26.783Z,31.41
2022-08-28T12:51:03.288Z,31.41
2022-08-28T12:53:44.920Z,32.16
2022-08-28T12:56:14.285Z,31.68
2022-08-28T12:58:42.176Z,30.84
2022-08-28T13:01:32.314Z,31.11
2022-08-28T13:04:03.048Z,30.45
2022-08-28T13:06:35.871Z,30.64
2022-08-28T13:09:06.753Z,31.44
2022-08-28T13:11:40.365Z,31.14
2022-08-28T13:14:08.421Z,31.35
2022-08-28T13:16:45.417Z,30.55
2022-08-28T13:19:26.217Z,30.85
2022-08-28T13:22:01.955Z,30.10
2022-08-28T13:24:38.744Z,29.62
2022-08-28T13:27:14.281Z,31.45
2022-08-28T13:29:55.645Z,30.56
2022-08-28T13:32:27.629Z,31.06
2022-08-28T13:35:27.853Z,30.57
2022-08-28T13:37:57.355Z,30.80
2022-08-28T13:40:56.198Z,30.76
2022-08-28T13:43:16.362Z,29.94
2022-08-28T13:45:46.000Z,29.90
2022-08-28T13:48:14.321Z,29.05
2022-08-28T13:50:44.841Z,28.86
2022-08-28T13:53:18.305Z,29.31
2022-08-28T13:55:45.554Z,28.85
2022-08-28T13:58:13.791Z,29.87
2022-08-28T14:00:44.166Z,29.55
2022-08-28T14:03:29.347Z,28.63
2022-08-28T14:05:56.116Z,27.30
2022-08-28T14:08:22.665Z,28.55
2022-08-28T14:10:49.229Z,28.59
2022-08-28T14:13:15.936Z,28.39
2022-08-28T14:15:43.781Z,28.30
2022-08-28T14:18:10.293Z,27.75
2022-08-28T14:20:38.121Z,28.38
2022-08-28T14:23:04.694Z,27.80
2022-08-28T14:25:33.749Z,27.88
2022-08-28T14:28:02.591Z,27.34
2022-08-28T14:30:29.705Z,26.75
2022-08-28T14:32:56.157Z,27.08
2022-08-28T14:35:22.582Z,27.70
2022-08-28T14:37:49.054Z,26.72
2022-08-28T14:40:16.177Z,27.13
2022-08-28T14:42:42.673Z,26.44
2022-08-28T14:45:09.595Z,26.86
2022-08-28T14:47:36.665Z,27.37
2022-08-28T14:50:03.403Z,26.49
2022-08-28T14:52:29.900Z,26.60
2022-08-28T14:54:56.296Z,27.18
2022-08-28T15:01:21.315Z,27.45
2022-08-28T15:07:00.539Z,28.66
2022-08-28T15:09:28.162Z,27.45
2022-08-28T15:11:54.786Z,28.75
2022-08-28T15:14:21.255Z,27.72
2022-08-28T15:16:48.419Z,26.56
2022-08-28T15:19:17.770Z,26.85
2022-08-28T15:21:48.191Z,27.42
2022-08-28T15:24:15.993Z,26.40
2022-08-28T15:26:43.202Z,26.77
2022-08-28T15:29:11.823Z,26.92
2022-08-28T15:31:42.412Z,26.43
2022-08-28T15:34:13.758Z,27.20
2022-08-28T15:36:41.569Z,26.65
2022-08-28T15:39:28.127Z,26.00
2022-08-28T15:41:55.374Z,25.94
2022-08-28T15:44:22.388Z,26.24
2022-08-28T15:46:55.527Z,26.99
2022-08-28T15:49:23.874Z,26.50
2022-08-28T15:51:50.891Z,26.40
2022-08-28T15:54:17.659Z,26.40
2022-08-28T15:56:44.139Z,25.91
2022-08-28T15:59:17.651Z,26.03
2022-08-28T16:01:45.259Z,26.93
2022-08-28T16:04:12.315Z,26.88
2022-08-28T16:06:39.108Z,27.28
2022-08-28T16:09:06.977Z,27.01
2022-08-28T16:11:33.977Z,26.56
2022-08-28T16:14:05.366Z,26.84
2022-08-28T16:16:32.616Z,26.85
2022-08-28T16:18:59.315Z,26.79
2022-08-28T16:21:26.875Z,26.04
2022-08-28T16:23:55.265Z,26.29
2022-08-28T16:26:25.582Z,27.17
2022-08-28T16:28:52.292Z,27.30
2022-08-28T16:31:19.839Z,26.93
2022-08-28T16:33:48.325Z,27.46
2022-08-28T16:36:16.120Z,27.90
2022-08-28T16:38:46.116Z,28.85
2022-08-28T16:41:19.336Z,29.53
2022-08-28T16:43:47.032Z,29.03
2022-08-28T16:46:17.238Z,29.14
2022-08-28T16:48:44.598Z,29.62
2022-08-28T16:51:12.096Z,29.87
2022-08-28T16:53:40.622Z,30.63
2022-08-28T16:56:09.032Z,29.89
2022-08-28T16:58:37.776Z,30.07
2022-08-28T17:01:05.705Z,29.84
2022-08-28T17:03:34.525Z,30.17
2022-08-28T17:06:08.038Z,29.54
2022-08-28T17:08:34.435Z,30.02
2022-08-28T17:14:39.208Z,30.46
2022-08-28T17:17:05.888Z,30.31
2022-08-28T17:19:32.625Z,30.38
2022-08-28T17:22:17.770Z,30.26
2022-08-28T17:24:46.996Z,30.69
2022-08-28T17:27:16.709Z,30.81
2022-08-28T17:29:49.202Z,30.64
2022-08-28T17:32:15.943Z,31.21
2022-08-28T17:34:42.451Z,31.19
2022-08-28T17:37:11.281Z,31.62
2022-08-28T17:39:37.874Z,32.01
2022-08-28T17:42:04.437Z,31.78
2022-08-28T17:44:31.114Z,32.16
2022-08-28T17:46:57.711Z,31.72
2022-08-28T17:49:24.299Z,31.89
2022-08-28T17:51:51.200Z,32.07
2022-08-28T17:54:21.466Z,32.46
2022-08-28T17:56:48.513Z,31.80
2022-08-28T17:59:15.667Z,32.52
2022-08-28T18:01:43.281Z,32.45
2022-08-28T18:04:10.862Z,32.15
2022-08-28T18:06:37.797Z,32.38
2022-08-28T18:09:05.733Z,32.07
2022-08-28T18:11:32.344Z,32.55
2022-08-28T18:13:59.832Z,33.06
2022-08-28T18:16:31.225Z,32.72
2022-08-28T18:19:02.195Z,32.71
2022-08-28T18:21:29.325Z,32.74
2022-08-28T18:23:56.309Z,32.66
2022-08-28T18:26:25.914Z,32.70
2022-08-28T18:28:52.701Z,33.36
2022-08-28T18:31:19.412Z,32.65
2022-08-28T18:33:46.588Z,32.70
2022-08-28T18:36:14.926Z,33.30
2022-08-28T18:38:42.712Z,33.46
2022-08-28T18:41:10.198Z,33.51
2022-08-28T18:43:37.627Z,33.25
2022-08-28T18:46:06.960Z,33.73
2022-08-28T18:48:33.468Z,33.67
2022-08-28T18:51:00.185Z,33.71
2022-08-28T18:53:31.036Z,34.09
2022-08-28T18:56:00.297Z,33.92
2022-08-28T18:58:29.487Z,34.05
2022-08-28T19:00:56.748Z,34.00
2022-08-28T19:03:23.274Z,34.75
2022-08-28T19:05:53.408Z,34.63
2022-08-28T19:08:20.006Z,34.51
2022-08-28T19:10:46.613Z,35.21
2022-08-28T19:13:13.257Z,35.10
2022-08-28T19:15:39.975Z,35.20
2022-08-28T19:18:07.035Z,34.93
2022-08-28T19:20:36.865Z,34.96
2022-08-28T19:23:03.515Z,35.15
2022-08-28T19:25:30.707Z,34.84
2022-08-28T19:27:59.442Z,34.78
2022-08-28T19:30:27.901Z,34.66
2022-08-28T19:32:54.865Z,34.91
2022-08-28T19:35:24.318Z,35.03
2022-08-28T19:37:52.469Z,35.24
2022-08-28T19:40:20.554Z,35.73
2022-08-28T19:42:49.243Z,36.08
2022-08-28T19:45:16.018Z,35.71
2022-08-28T19:47:42.637Z,36.20
2022-08-28T19:50:12.006Z,36.14
2022-08-28T19:52:39.146Z,36.09
2022-08-28T19:55:06.841Z,35.86
2022-08-28T19:57:35.379Z,35.58
2022-08-28T20:00:04.342Z,35.50
2022-08-28T20:02:30.992Z,35.50
2022-08-28T20:04:57.493Z,34.89
2022-08-28T20:07:24.959Z,35.30
2022-08-28T20:09:52.127Z,35.85
2022-08-28T20:12:18.588Z,35.88
2022-08-28T20:14:45.594Z,36.26
2022-08-28T20:17:12.198Z,36.17
2022-08-28T20:19:39.040Z,36.37
2022-08-28T20:22:05.511Z,36.16
2022-08-28T20:24:32.161Z,36.13
2022-08-28T20:26:58.694Z,35.74
2022-08-28T20:29:25.207Z,35.83
2022-08-28T20:31:52.793Z,35.40
2022-08-28T20:34:20.208Z,36.28
2022-08-28T20:36:47.624Z,35.95
2022-08-28T20:39:14.818Z,36.18
2022-08-28T20:41:42.511Z,36.08
2022-08-28T20:44:12.646Z,36.12
2022-08-28T20:46:41.980Z,36.02
2022-08-28T20:49:10.839Z,36.07
2022-08-28T20:51:52.715Z,35.90
2022-08-28T20:54:41.597Z,36.06
2022-08-28T20:57:10.652Z,36.59
2022-08-28T20:59:40.507Z,36.80
2022-08-28T21:02:10.295Z,36.70
2022-08-28T21:04:39.090Z,36.87
2022-08-28T21:07:06.932Z,37.04
2022-08-28T21:09:52.675Z,37.44
2022-08-28T21:12:20.160Z,37.49
2022-08-28T21:14:51.384Z,37.82
2022-08-28T21:17:28.675Z,37.53
2022-08-28T21:19:55.647Z,37.79
2022-08-28T21:22:22.392Z,37.57
2022-08-28T21:24:48.917Z,37.73
2022-08-28T21:27:15.405Z,37.30
2022-08-28T21:29:45.041Z,37.10
2022-08-28T21:32:11.684Z,37.62
2022-08-28T21:34:38.180Z,37.65
2022-08-28T21:37:04.780Z,37.93
2022-08-28T21:39:31.306Z,37.40
2022-08-28T21:41:57.919Z,37.28
2022-08-28T21:44:24.949Z,37.79
2022-08-28T21:46:51.369Z,37.67
2022-08-28T21:49:17.834Z,38.01
2022-08-28T21:51:44.281Z,38.34
2022-08-28T21:54:10.846Z,38.52
2022-08-28T21:56:37.287Z,38.59
2022-08-28T21:59:03.896Z,38.45
2022-08-28T22:01:30.451Z,38.75
2022-08-28T22:03:57.099Z,38.68
2022-08-28T22:06:24.793Z,38.70
2022-08-28T22:08:52.328Z,39.21
2022-08-28T22:11:23.425Z,39.02
2022-08-28T22:13:55.505Z,39.78
2022-08-28T22:16:22.813Z,40.10
2022-08-28T22:18:49.271Z,40.03
2022-08-28T22:21:45.118Z,40.35
2022-08-28T22:24:13.220Z,40.06
2022-08-28T22:26:40.599Z,40.07
2022-08-28T22:29:07.895Z,40.77
2022-08-28T22:31:35.345Z,40.88
2022-08-28T22:34:06.036Z,41.05
2022-08-28T22:36:33.050Z,41.05
2022-08-28T22:38:59.604Z,40.80
2022-08-28T22:41:26.289Z,41.53
2022-08-28T22:43:53.450Z,41.50
2022-08-28T22:46:20.665Z,41.48
2022-08-28T22:48:47.499Z,41.86
2022-08-28T22:51:18.234Z,42.60
2022-08-28T22:53:45.156Z,42.65
2022-08-28T22:56:12.226Z,42.81
2022-08-28T22:58:39.648Z,43.04
2022-08-28T23:01:09.968Z,43.38
2022-08-28T23:03:37.441Z,43.50
2022-08-28T23:06:04.565Z,42.93
2022-08-28T23:08:34.061Z,43.13
2022-08-28T23:11:00.963Z,42.86
2022-08-28T23:13:28.080Z,42.82
2022-08-28T23:15:54.644Z,43.15
2022-08-28T23:18:21.260Z,43.39
2022-08-28T23:20:50.711Z,43.00
2022-08-28T23:23:19.086Z,43.62
2022-08-28T23:25:45.930Z,43.58
2022-08-28T23:28:12.823Z,43.76
2022-08-28T23:30:41.240Z,43.74
2022-08-28T23:33:19.737Z,44.27
2022-08-28T23:35:50.192Z,44.32
2022-08-28T23:38:16.980Z,44.96
2022-08-28T23:40:44.513Z,44.36
2022-08-28T23:43:11.679Z,44.92
2022-08-28T23:45:42.068Z,44.78
2022-08-28T23:48:09.124Z,45.11
2022-08-28T23:50:35.972Z,44.89
2022-08-28T23:53:03.767Z,45.36
2022-08-28T23:55:30.989Z,45.37
2022-08-28T23:58:00.036Z,45.61
